createdAt,value
2022-07-29T00:00:00.330Z,47.95
2022-07-29T00:02:27.861Z,47.97
2022-07-29T00:04:54.474Z,48.15
2022-07-29T00:07:22.263Z,48.36
2022-07-29T00:09:50.839Z,48.37
2022-07-29T00:12:26.561Z,48.42
2022-07-29T00:14:54.336Z,48.49
2022-07-29T00:17:24.476Z,48.88
2022-07-29T00:19:53.495Z,48.76
2022-07-29T00:22:20.948Z,48.89
2022-07-29T00:24:49.173Z,49.20
2022-07-29T00:27:16.014Z,49.11
2022-07-29T00:29:42.432Z,49.21
2022-07-29T00:32:08.936Z,49.26
2022-07-29T00:34:54.148Z,49.38
2022-07-29T00:37:20.703Z,49.63
2022-07-29T00:39:47.221Z,49.64
2022-07-29T00:42:13.749Z,49.57
2022-07-29T00:44:41.691Z,49.76
2022-07-29T00:47:10.041Z,49.83
2022-07-29T00:49:37.077Z,50.03
2022-07-29T00:52:08.252Z,50.11
2022-07-29T00:54:35.049Z,50.09
2022-07-29T00:57:02.171Z,50.23
2022-07-29T00:59:34.405Z,50.26
2022-07-29T01:02:05.701Z,50.28
2022-07-29T01:04:33.072Z,50.33
2022-07-29T01:07:02.684Z,50.46
2022-07-29T01:09:42.216Z,50.52
2022-07-29T01:12:16.841Z,50.64
2022-07-29T01:14:45.062Z,50.68
2022-07-29T01:17:34.058Z,50.67
2022-07-29T01:20:31.636Z,50.81
2022-07-29T01:23:07.194Z,50.95
2022-07-29T01:26:08.855Z,50.97
2022-07-29T01:28:50.054Z,51.07
2022-07-29T01:31:26.541Z,51.26
2022-07-29T01:34:02.994Z,51.18
2022-07-29T01:36:50.986Z,51.38
2022-07-29T01:39:36.973Z,51.52
2022-07-29T01:42:13.757Z,51.54
2022-07-29T01:44:56.343Z,51.55
2022-07-29T01:47:30.213Z,51.68
2022-07-29T01:49:58.600Z,51.81
2022-07-29T01:52:38.334Z,51.83
2022-07-29T01:55:16.931Z,51.98
2022-07-29T01:57:47.415Z,52.02
2022-07-29T02:00:15.013Z,52.08
2022-07-29T02:02:46.130Z,52.19
2022-07-29T02:05:16.165Z,52.22
2022-07-29T02:07:45.760Z,52.45
2022-07-29T02:10:13.715Z,52.48
2022-07-29T02:12:42.843Z,52.57
2022-07-29T02:15:17.039Z,52.75
2022-07-29T02:17:51.892Z,52.79
2022-07-29T02:20:18.742Z,52.96
2022-07-29T02:22:54.584Z,53.12
2022-07-29T02:25:24.414Z,53.10
2022-07-29T02:27:52.765Z,53.26
2022-07-29T02:30:22.379Z,53.18
2022-07-29T02:32:51.207Z,53.30
2022-07-29T02:35:20.524Z,53.27
2022-07-29T02:38:08.934Z,53.44
2022-07-29T02:40:39.398Z,53.54
2022-07-29T02:43:07.856Z,53.73
2022-07-29T02:45:37.617Z,53.61
2022-07-29T02:48:11.025Z,53.68
2022-07-29T02:50:50.870Z,53.71
2022-07-29T02:53:24.546Z,53.91
2022-07-29T02:55:50.837Z,53.87
2022-07-29T02:58:28.883Z,54.12
2022-07-29T03:01:21.597Z,54.09
2022-07-29T03:03:51.171Z,54.21
2022-07-29T03:06:37.390Z,54.23
2022-07-29T03:09:12.885Z,54.42
2022-07-29T03:11:49.652Z,54.51
2022-07-29T03:14:19.810Z,54.52
2022-07-29T03:16:47.334Z,54.44
2022-07-29T03:19:14.344Z,54.57
2022-07-29T03:21:41.864Z,54.70
2022-07-29T03:24:10.804Z,54.71
2022-07-29T03:26:38.791Z,54.75
2022-07-29T03:29:05.758Z,54.90
2022-07-29T03:31:33.463Z,54.81
2022-07-29T03:34:01.981Z,54.95
2022-07-29T03:36:28.337Z,54.97
2022-07-29T03:38:56.192Z,54.96
2022-07-29T03:41:24.972Z,55.07
2022-07-29T03:43:53.369Z,55.12
2022-07-29T03:46:22.507Z,55.39
2022-07-29T03:48:53.985Z,55.22
2022-07-29T03:51:34.083Z,55.26
2022-07-29T03:54:09.917Z,55.43
2022-07-29T03:56:52.477Z,55.50
2022-07-29T03:59:24.941Z,55.54
2022-07-29T04:01:52.213Z,55.47
2022-07-29T04:04:19.237Z,55.66
2022-07-29T04:06:48.360Z,55.51
2022-07-29T04:09:15.351Z,55.14
2022-07-29T04:12:01.979Z,54.92
2022-07-29T04:14:33.138Z,54.79
2022-07-29T04:17:00.351Z,54.55
2022-07-29T04:19:27.132Z,54.20
2022-07-29T04:21:53.827Z,53.89
2022-07-29T04:24:20.605Z,53.62
2022-07-29T04:26:48.573Z,53.06
2022-07-29T04:29:17.831Z,52.58
2022-07-29T04:31:45.232Z,52.02
2022-07-29T04:34:12.154Z,51.68
2022-07-29T04:36:38.660Z,51.38
2022-07-29T04:39:05.484Z,51.35
2022-07-29T04:41:33.302Z,50.99
2022-07-29T04:44:06.003Z,50.85
2022-07-29T04:46:34.038Z,50.79
2022-07-29T04:49:03.307Z,50.53
2022-07-29T04:51:30.752Z,50.65
2022-07-29T04:53:57.282Z,50.55
2022-07-29T04:56:25.549Z,50.62
2022-07-29T04:58:52.310Z,50.65
2022-07-29T05:01:19.823Z,50.45
2022-07-29T05:03:47.303Z,50.36
2022-07-29T05:06:14.344Z,50.42
2022-07-29T05:08:41.935Z,50.35
2022-07-29T05:11:11.745Z,50.53
2022-07-29T05:13:45.723Z,50.47
2022-07-29T05:16:14.342Z,50.35
2022-07-29T05:18:42.615Z,50.39
2022-07-29T05:21:08.993Z,50.37
2022-07-29T05:23:35.471Z,50.37
2022-07-29T05:26:02.060Z,50.31
2022-07-29T05:28:28.771Z,50.26
2022-07-29T05:30:55.259Z,50.11
2022-07-29T05:33:35.418Z,49.89
2022-07-29T05:36:07.301Z,49.96
2022-07-29T05:38:35.175Z,49.81
2022-07-29T05:41:01.796Z,49.74
2022-07-29T05:43:28.803Z,49.63
2022-07-29T05:45:55.906Z,49.49
2022-07-29T05:48:23.160Z,49.40
2022-07-29T05:50:49.611Z,49.56
2022-07-29T05:53:18.764Z,49.18
2022-07-29T05:55:48.439Z,49.00
2022-07-29T05:58:15.331Z,48.89
2022-07-29T06:00:42.299Z,48.93
2022-07-29T06:03:09.788Z,48.75
2022-07-29T06:05:36.199Z,48.82
2022-07-29T06:08:02.839Z,48.51
2022-07-29T06:10:29.453Z,48.39
2022-07-29T06:12:55.985Z,48.27
2022-07-29T06:15:22.681Z,48.04
2022-07-29T06:18:00.790Z,48.28
2022-07-29T06:20:32.551Z,48.07
2022-07-29T06:23:00.000Z,47.95
2022-07-29T06:25:29.536Z,47.78
2022-07-29T06:27:56.052Z,47.77
2022-07-29T06:30:22.681Z,47.86
2022-07-29T06:32:49.967Z,47.63
2022-07-29T06:38:09.585Z,47.39
2022-07-29T06:41:00.327Z,47.42
2022-07-29T06:43:52.065Z,47.66
2022-07-29T06:46:22.669Z,47.25
2022-07-29T06:48:50.527Z,47.32
2022-07-29T06:51:23.177Z,47.14
2022-07-29T06:53:58.258Z,47.22
2022-07-29T06:56:38.940Z,46.87
2022-07-29T06:59:10.643Z,46.94
2022-07-29T07:01:38.685Z,46.72
2022-07-29T07:04:07.024Z,46.70
2022-07-29T07:06:33.645Z,46.87
2022-07-29T07:09:00.031Z,47.10
2022-07-29T07:11:26.514Z,47.01
2022-07-29T07:13:53.713Z,46.99
2022-07-29T07:16:20.729Z,46.84
2022-07-29T07:18:47.279Z,46.95
2022-07-29T07:21:18.817Z,46.94
2022-07-29T07:23:46.794Z,46.98
2022-07-29T07:26:13.567Z,46.97
2022-07-29T07:28:41.283Z,46.90
2022-07-29T07:31:08.179Z,46.84
2022-07-29T07:33:34.802Z,46.63
2022-07-29T07:36:01.351Z,46.55
2022-07-29T07:38:28.221Z,46.55
2022-07-29T07:40:54.731Z,46.70
2022-07-29T07:43:23.155Z,46.55
2022-07-29T07:46:00.243Z,46.47
2022-07-29T07:48:35.200Z,46.22
2022-07-29T07:51:01.949Z,46.39
2022-07-29T07:53:30.150Z,46.21
2022-07-29T07:56:13.008Z,46.17
2022-07-29T07:58:39.658Z,46.14
2022-07-29T08:01:06.245Z,46.11
2022-07-29T08:03:33.668Z,46.05
2022-07-29T08:06:00.579Z,45.93
2022-07-29T08:08:27.935Z,45.99
2022-07-29T08:10:56.328Z,45.83
2022-07-29T08:13:30.558Z,45.63
2022-07-29T08:16:11.982Z,45.60
2022-07-29T08:18:40.254Z,45.73
2022-07-29T08:21:06.647Z,45.77
2022-07-29T08:23:46.831Z,45.51
2022-07-29T08:26:15.921Z,45.33
2022-07-29T08:28:49.077Z,45.45
2022-07-29T08:31:16.819Z,45.16
2022-07-29T08:33:43.958Z,45.13
2022-07-29T08:36:10.451Z,44.99
2022-07-29T08:38:36.900Z,44.89
2022-07-29T08:41:03.865Z,44.63
2022-07-29T08:43:30.254Z,44.45
2022-07-29T08:45:56.725Z,44.43
2022-07-29T08:48:24.125Z,44.41
2022-07-29T08:50:56.845Z,44.30
2022-07-29T08:53:27.583Z,44.44
2022-07-29T08:55:56.555Z,44.29
2022-07-29T08:58:25.886Z,44.11
2022-07-29T09:00:56.128Z,44.01
2022-07-29T09:03:41.710Z,43.94
2022-07-29T09:06:08.453Z,43.73
2022-07-29T09:08:34.939Z,43.73
2022-07-29T09:11:03.940Z,43.70
2022-07-29T09:13:31.814Z,43.58
2022-07-29T09:15:58.342Z,43.40
2022-07-29T09:18:42.443Z,43.48
2022-07-29T09:21:30.875Z,43.12
2022-07-29T09:24:07.755Z,43.07
2022-07-29T09:26:38.041Z,42.76
2022-07-29T09:29:13.823Z,42.86
2022-07-29T09:31:42.982Z,42.63
2022-07-29T09:34:10.765Z,42.34
2022-07-29T09:36:46.753Z,42.14
2022-07-29T09:39:15.691Z,42.01
2022-07-29T09:41:55.474Z,42.02
2022-07-29T09:44:23.111Z,41.87
2022-07-29T09:47:06.620Z,41.54
2022-07-29T09:49:50.374Z,41.42
2022-07-29T09:52:17.135Z,41.51
2022-07-29T09:54:43.717Z,41.43
2022-07-29T09:57:26.172Z,41.20
2022-07-29T10:00:03.861Z,40.93
2022-07-29T10:02:40.035Z,41.27
2022-07-29T10:05:17.163Z,41.37
2022-07-29T10:07:49.386Z,41.03
2022-07-29T10:10:21.545Z,41.13
2022-07-29T10:13:04.592Z,41.15
2022-07-29T10:15:41.243Z,41.18
2022-07-29T10:18:11.697Z,41.03
2022-07-29T10:20:40.109Z,40.79
2022-07-29T10:23:06.972Z,40.74
2022-07-29T10:25:33.809Z,40.76
2022-07-29T10:28:00.222Z,40.65
2022-07-29T10:30:27.830Z,40.59
2022-07-29T10:33:07.172Z,40.48
2022-07-29T10:36:05.488Z,40.28
2022-07-29T10:38:47.225Z,40.33
2022-07-29T10:44:30.397Z,40.03
2022-07-29T10:46:57.247Z,39.83
2022-07-29T10:49:27.391Z,39.73
2022-07-29T10:52:01.268Z,39.68
2022-07-29T10:54:34.602Z,39.83
2022-07-29T10:57:16.016Z,39.48
2022-07-29T10:59:53.138Z,39.61
2022-07-29T11:02:49.872Z,39.48
2022-07-29T11:05:19.798Z,39.31
2022-07-29T11:11:21.987Z,39.13
2022-07-29T11:13:55.428Z,39.05
2022-07-29T11:16:22.842Z,39.09
2022-07-29T11:19:13.717Z,38.92
2022-07-29T11:21:53.680Z,38.82
2022-07-29T11:24:28.837Z,38.80
2022-07-29T11:27:18.358Z,38.63
2022-07-29T11:30:07.561Z,38.64
2022-07-29T11:32:44.597Z,38.73
2022-07-29T11:35:37.215Z,38.69
2022-07-29T11:38:27.811Z,38.75
2022-07-29T11:44:06.383Z,38.43
2022-07-29T11:46:49.713Z,38.39
2022-07-29T11:49:32.596Z,38.36
2022-07-29T11:52:02.356Z,38.37
2022-07-29T11:54:57.171Z,38.31
2022-07-29T11:57:21.978Z,38.21
2022-07-29T11:59:49.664Z,38.17
2022-07-29T12:02:36.666Z,37.96
2022-07-29T12:05:10.662Z,37.71
2022-07-29T12:07:41.211Z,37.47
2022-07-29T12:10:19.992Z,37.67
2022-07-29T12:12:58.140Z,37.34
2022-07-29T12:15:45.608Z,37.26
2022-07-29T12:18:18.950Z,37.23
2022-07-29T12:20:47.001Z,37.24
2022-07-29T12:23:16.690Z,37.02
2022-07-29T12:25:49.977Z,36.88
2022-07-29T12:28:27.445Z,36.96
2022-07-29T12:30:54.581Z,36.90
2022-07-29T12:33:27.935Z,37.07
2022-07-29T12:36:07.054Z,36.92
2022-07-29T12:38:36.208Z,36.62
2022-07-29T12:41:04.576Z,36.76
2022-07-29T12:43:31.607Z,36.60
2022-07-29T12:45:58.419Z,36.45
2022-07-29T12:48:36.300Z,36.46
2022-07-29T12:51:04.781Z,36.28
2022-07-29T12:53:31.589Z,36.43
2022-07-29T12:56:07.985Z,36.40
2022-07-29T12:58:42.343Z,36.20
2022-07-29T13:01:18.455Z,36.44
2022-07-29T13:03:59.706Z,36.26
2022-07-29T13:06:51.056Z,36.16
2022-07-29T13:09:19.977Z,36.00
2022-07-29T13:11:49.713Z,35.95
2022-07-29T13:14:37.339Z,36.04
2022-07-29T13:17:11.968Z,36.08
2022-07-29T13:19:45.894Z,35.95
2022-07-29T13:22:25.034Z,35.68
2022-07-29T13:24:57.519Z,35.65
2022-07-29T13:27:26.554Z,35.63
2022-07-29T13:29:56.877Z,35.67
2022-07-29T13:32:27.850Z,35.60
2022-07-29T13:35:00.471Z,35.45
2022-07-29T13:37:29.912Z,35.56
2022-07-29T13:39:57.385Z,35.43
2022-07-29T13:42:25.228Z,35.41
2022-07-29T13:44:52.462Z,35.42
2022-07-29T13:47:20.467Z,35.29
2022-07-29T13:49:47.028Z,35.35
2022-07-29T13:52:14.402Z,35.41
2022-07-29T13:54:42.623Z,35.32
2022-07-29T13:57:13.122Z,35.30
2022-07-29T13:59:42.849Z,35.49
2022-07-29T14:02:11.133Z,35.48
2022-07-29T14:04:39.434Z,35.26
2022-07-29T14:07:07.504Z,35.40
2022-07-29T14:09:41.197Z,35.37
2022-07-29T14:12:09.957Z,35.41
2022-07-29T14:14:42.067Z,35.38
2022-07-29T14:17:08.702Z,35.40
2022-07-29T14:19:36.034Z,35.46
2022-07-29T14:22:04.274Z,35.42
2022-07-29T14:24:30.877Z,35.52
2022-07-29T14:26:59.362Z,35.66
2022-07-29T14:29:37.073Z,35.44
2022-07-29T14:32:07.640Z,35.54
2022-07-29T14:34:35.458Z,35.75
2022-07-29T14:37:05.462Z,35.65
2022-07-29T14:39:42.473Z,35.82
2022-07-29T14:42:11.525Z,35.80
2022-07-29T14:44:41.622Z,35.88
2022-07-29T14:47:08.614Z,35.85
2022-07-29T14:49:37.234Z,35.87
2022-07-29T14:52:04.451Z,36.01
2022-07-29T14:54:30.946Z,36.03
2022-07-29T14:56:57.505Z,36.12
2022-07-29T14:59:24.104Z,35.94
2022-07-29T15:01:50.474Z,35.85
2022-07-29T15:04:20.301Z,36.11
2022-07-29T15:06:46.785Z,36.07
2022-07-29T15:09:13.716Z,36.16
2022-07-29T15:11:40.306Z,36.14
2022-07-29T15:14:09.100Z,36.18
2022-07-29T15:16:37.715Z,36.17
2022-07-29T15:19:05.050Z,36.19
2022-07-29T15:21:32.202Z,36.17
2022-07-29T15:23:58.676Z,36.28
2022-07-29T15:26:25.241Z,36.20
2022-07-29T15:28:53.676Z,36.26
2022-07-29T15:31:20.481Z,36.26
2022-07-29T15:33:47.164Z,36.34
2022-07-29T15:36:35.677Z,36.27
2022-07-29T15:39:00.742Z,36.33
2022-07-29T15:41:27.822Z,36.15
2022-07-29T15:43:54.279Z,36.13
2022-07-29T15:46:40.206Z,36.27
2022-07-29T15:49:07.744Z,36.62
2022-07-29T15:51:34.385Z,36.74
2022-07-29T15:54:03.176Z,36.90
2022-07-29T15:56:30.524Z,37.13
2022-07-29T15:58:58.013Z,37.37
2022-07-29T16:01:24.628Z,37.51
2022-07-29T16:03:52.420Z,37.86
2022-07-29T16:06:26.189Z,37.95
2022-07-29T16:09:06.752Z,37.92
2022-07-29T16:11:40.182Z,38.14
2022-07-29T16:14:20.166Z,38.27
2022-07-29T16:16:52.416Z,38.32
2022-07-29T16:19:23.175Z,38.58
2022-07-29T16:21:49.982Z,38.56
2022-07-29T16:24:16.481Z,38.62
2022-07-29T16:26:42.895Z,38.74
2022-07-29T16:29:09.344Z,38.90
2022-07-29T16:31:36.846Z,38.90
2022-07-29T16:34:03.240Z,39.05
2022-07-29T16:36:29.721Z,39.12
2022-07-29T16:38:56.536Z,39.09
2022-07-29T16:41:23.099Z,39.29
2022-07-29T16:43:49.548Z,39.24
2022-07-29T16:46:18.584Z,39.21
2022-07-29T16:48:45.947Z,39.31
2022-07-29T16:51:14.487Z,39.37
2022-07-29T16:53:41.621Z,39.57
2022-07-29T16:56:11.170Z,39.64
2022-07-29T16:58:43.625Z,39.53
2022-07-29T17:01:11.448Z,39.75
2022-07-29T17:04:00.125Z,39.87
2022-07-29T17:06:29.406Z,39.88
2022-07-29T17:08:56.767Z,40.14
2022-07-29T17:11:52.530Z,40.18
2022-07-29T17:14:10.283Z,40.35
2022-07-29T17:16:37.782Z,40.52
2022-07-29T17:19:04.725Z,40.49
2022-07-29T17:21:31.276Z,40.73
2022-07-29T17:23:58.797Z,40.88
2022-07-29T17:26:27.075Z,40.95
2022-07-29T17:28:55.502Z,40.98
2022-07-29T17:31:22.790Z,41.12
2022-07-29T17:33:50.049Z,41.10
2022-07-29T17:36:23.988Z,41.18
2022-07-29T17:38:52.710Z,41.23
2022-07-29T17:41:21.470Z,41.43
2022-07-29T17:43:49.096Z,41.54
2022-07-29T17:46:18.168Z,41.51
2022-07-29T17:48:45.244Z,41.61
2022-07-29T17:51:12.431Z,41.81
2022-07-29T17:53:38.939Z,41.95
2022-07-29T17:56:05.497Z,42.03
2022-07-29T17:58:32.489Z,42.19
2022-07-29T18:00:59.025Z,42.32
2022-07-29T18:03:26.322Z,42.39
2022-07-29T18:05:53.203Z,42.57
2022-07-29T18:08:19.874Z,42.72
2022-07-29T18:10:46.428Z,42.75
2022-07-29T18:13:13.204Z,42.79
2022-07-29T18:15:40.399Z,42.87
2022-07-29T18:18:07.334Z,43.02
2022-07-29T18:20:34.139Z,43.14
2022-07-29T18:23:00.874Z,43.37
2022-07-29T18:25:28.988Z,43.37
2022-07-29T18:28:00.292Z,43.62
2022-07-29T18:30:28.537Z,43.75
2022-07-29T18:33:19.676Z,43.80
2022-07-29T18:35:41.804Z,43.97
2022-07-29T18:38:08.237Z,44.21
2022-07-29T18:40:34.801Z,44.28
2022-07-29T18:43:01.332Z,44.51
2022-07-29T18:45:28.948Z,44.63
2022-07-29T18:47:57.571Z,44.82
2022-07-29T18:50:29.225Z,44.94
2022-07-29T18:52:58.097Z,45.16
2022-07-29T18:55:25.171Z,45.31
2022-07-29T18:57:54.289Z,45.42
2022-07-29T19:00:24.825Z,45.73
2022-07-29T19:02:52.509Z,46.00
2022-07-29T19:05:22.380Z,46.08
2022-07-29T19:07:49.380Z,46.31
2022-07-29T19:10:15.931Z,46.38
2022-07-29T19:12:42.693Z,46.57
2022-07-29T19:15:10.533Z,46.97
2022-07-29T19:17:38.325Z,47.02
2022-07-29T19:20:07.697Z,47.21
2022-07-29T19:22:35.285Z,47.35
2022-07-29T19:25:02.592Z,47.51
2022-07-29T19:27:29.154Z,47.68
2022-07-29T19:29:59.361Z,47.88
2022-07-29T19:32:27.904Z,48.12
2022-07-29T19:35:14.067Z,48.24
2022-07-29T19:37:40.478Z,48.37
2022-07-29T19:40:09.497Z,48.58
2022-07-29T19:42:38.646Z,48.83
2022-07-29T19:45:07.372Z,49.05
2022-07-29T19:47:33.985Z,49.29
2022-07-29T19:50:00.769Z,49.68
2022-07-29T19:52:27.833Z,49.70
2022-07-29T19:54:54.417Z,50.03
2022-07-29T19:57:21.312Z,50.44
2022-07-29T19:59:47.795Z,50.48
2022-07-29T20:02:17.263Z,50.66
2022-07-29T20:04:43.958Z,50.83
2022-07-29T20:07:12.344Z,50.99
2022-07-29T20:09:40.317Z,51.22
2022-07-29T20:12:10.887Z,51.39
2022-07-29T20:14:37.573Z,51.71
2022-07-29T20:17:05.407Z,51.71
2022-07-29T20:19:33.447Z,51.90
2022-07-29T20:22:00.305Z,52.02
2022-07-29T20:24:29.725Z,52.23
2022-07-29T20:26:57.581Z,52.04
2022-07-29T20:29:24.983Z,52.15
2022-07-29T20:31:52.242Z,52.25
2022-07-29T20:34:21.494Z,52.49
2022-07-29T20:36:53.345Z,52.42
2022-07-29T20:39:20.549Z,52.67
2022-07-29T20:41:50.630Z,52.76
2022-07-29T20:44:19.163Z,52.99
2022-07-29T20:46:45.688Z,53.06
2022-07-29T20:49:12.333Z,53.25
2022-07-29T20:51:43.684Z,53.29
2022-07-29T20:54:11.617Z,53.53
2022-07-29T20:56:39.280Z,53.63
2022-07-29T20:59:09.537Z,53.65
2022-07-29T21:01:36.718Z,53.83
2022-07-29T21:04:05.067Z,53.99
2022-07-29T21:06:34.203Z,54.03
2022-07-29T21:09:00.741Z,54.20
2022-07-29T21:11:43.265Z,54.44
2022-07-29T21:14:27.533Z,54.56
2022-07-29T21:16:54.220Z,54.73
2022-07-29T21:19:20.700Z,54.95
2022-07-29T21:21:47.365Z,54.81
2022-07-29T21:24:13.781Z,54.91
2022-07-29T21:26:47.294Z,54.93
2022-07-29T21:29:21.059Z,55.10
2022-07-29T21:31:48.085Z,55.21
2022-07-29T21:34:15.985Z,55.46
2022-07-29T21:36:48.212Z,55.45
2022-07-29T21:39:15.248Z,55.51
2022-07-29T21:41:42.785Z,55.66
2022-07-29T21:44:09.133Z,55.71
2022-07-29T21:46:36.223Z,55.90
2022-07-29T21:49:02.755Z,55.98
2022-07-29T21:51:29.171Z,56.07
2022-07-29T21:53:55.614Z,56.25
2022-07-29T21:56:23.605Z,56.22
2022-07-29T21:58:54.561Z,56.25
2022-07-29T22:01:21.061Z,56.40
2022-07-29T22:03:48.748Z,56.62
2022-07-29T22:06:18.258Z,56.60
2022-07-29T22:08:45.497Z,56.94
2022-07-29T22:11:12.668Z,56.88
2022-07-29T22:13:39.170Z,56.95
2022-07-29T22:16:06.175Z,57.07
2022-07-29T22:18:33.989Z,57.31
2022-07-29T22:21:00.439Z,57.25
2022-07-29T22:23:27.426Z,57.47
2022-07-29T22:25:53.821Z,57.50
2022-07-29T22:28:20.579Z,57.47
2022-07-29T22:30:47.108Z,57.63
2022-07-29T22:33:17.454Z,57.67
2022-07-29T22:35:45.720Z,57.95
2022-07-29T22:38:17.561Z,58.04
2022-07-29T22:40:43.956Z,58.26
2022-07-29T22:43:10.337Z,58.33
2022-07-29T22:45:37.250Z,58.38
2022-07-29T22:48:06.025Z,58.55
2022-07-29T22:50:33.030Z,58.53
2022-07-29T22:52:59.562Z,58.65
2022-07-29T22:55:25.976Z,58.71
2022-07-29T22:57:52.550Z,58.84
2022-07-29T23:00:19.016Z,58.88
2022-07-29T23:02:45.374Z,58.93
2022-07-29T23:05:15.164Z,59.31
2022-07-29T23:07:42.991Z,59.20
2022-07-29T23:10:09.756Z,59.46
2022-07-29T23:12:37.380Z,59.43
2022-07-29T23:15:05.369Z,59.48
2022-07-29T23:17:32.208Z,59.57
2022-07-29T23:20:06.993Z,59.72
2022-07-29T23:22:34.602Z,59.91
2022-07-29T23:25:01.165Z,60.05
2022-07-29T23:27:30.535Z,60.04
2022-07-29T23:29:57.053Z,60.09
2022-07-29T23:32:24.455Z,60.33
2022-07-29T23:34:50.860Z,60.44
2022-07-29T23:37:20.113Z,60.35
2022-07-29T23:39:46.483Z,60.53
2022-07-29T23:42:12.986Z,60.53
2022-07-29T23:44:39.783Z,60.56
2022-07-29T23:47:06.208Z,60.67
2022-07-29T23:49:33.611Z,60.72
2022-07-29T23:52:00.262Z,60.59
2022-07-29T23:54:26.676Z,60.76
2022-07-29T23:56:53.202Z,60.91
2022-07-29T23:59:19.639Z,60.84
